Golf, IL

6:31 AM CDT on August 21, 2014 (GMT -0500)
Village Of Niles | Change Station
CLOSE
Current Station
Personal Weather Station
Location: Niles, IL
Elevation: 636 ft
Nearby Weather Stations

Elev 636 ft 42.04 °N, 87.81 °W | Updated 0 second ago

Light Rain
Light Rain
71.2 °F
Feels Like 71.2 °F
N
0.0
Wind Variable Wind from SW
Gusts 0.0 mph

Today
High -- | Low -- °F
--% Chance of Precip.
Yesterday
High -- | Low -- °F
Precip. -- in
6:05 AM 7:42 PM
Waning Crescent, 15% visible
Pressure 29.94 in
Visibility 10.0 miles
Clouds Few 8000 ft
Scattered Clouds 10000 ft
Mostly Cloudy 11000 ft
Dew Point 70 °F
Humidity 97%
Rainfall 0.00 in
Snow Depth Not available.
UV 0 out of 12
Pollen 5.80 out of 12
Ozone Good
PM2.5 Moderate
Flu Activity Not available.
METAR KPWK 211052Z 17006KT 10SM -RA FEW080 SCT100 BKN110 23/21 A2996 RMK AO2 LTG DSNT SE-W RAB02 SLP138 P0001 T02280206

More Conditions Fewer Conditions

Pressure 29.94 in
Visibility 10.0 miles
Clouds Few 8000 ft
Scattered Clouds 10000 ft
Mostly Cloudy 11000 ft
Dew Point 70 °F
Humidity 97%
Rainfall 0.00 in
Snow Depth Not available.
UV 0 out of 12
Pollen 5.80 out of 12
Ozone Good
PM2.5 Moderate
Flu Activity Not available.
METAR KPWK 211052Z 17006KT 10SM -RA FEW080 SCT100 BKN110 23/21 A2996 RMK AO2 LTG DSNT SE-W RAB02 SLP138 P0001 T02280206

More Conditions Fewer Conditions

Nowcast | as of 6:10 am CDT on August 21, 2014

At 606 am Doppler radar indicated showers and thunderstorms over much of northern Illinois. All thunderstorms were sliding southeast at about 20 mph. Torrential downpours may accompany the stronger thunderstorms...along with frequent cloud to ground lightning. Additional showers and thunderstorms will continue through this morning.

×

10-Day Weather Forecast

Almanac

Astronomy

Aug. 21, 2014 Rise Set
Actual Time 6:05 AM CDT 7:42 PM CDT
Civil Twilight 5:35 AM CDT 8:12 PM CDT
Nautical Twilight 4:59 AM CDT 8:47 PM CDT
Astronomical Twilight 4:21 AM CDT 9:25 PM CDT
Moon 2:33 AM CDT 5:12 PM CDT
Length of Visible Light 14h 36m
Length of Day
13h 37m
Tomorrow will be 2m 36s shorter.
Waning Crescent, 15% of the Moon is Illuminated
Today
Waning Crescent
Aug 25
New
Sep 2
First Quarter
Sep 8
Full
Sep 15
Last Quarter

Today's Extremes

State Highs State Lows

Community

WunderPhotos

Upload Photos

1,745,862 photos uploaded!

Nearby

Air Quality

  Air Quality AQ Index Pollutant
Yesterday Moderate
PM2.5
Yesterday Good
OZONE
Current Moderate
PM2.5
Current Good
OZONE
Thursday Moderate
OZONE
Thursday Moderate
PM2.5

Snow Depth

Station Depth Elevation
No new snow has been reported.

Earthquake Activity

City Distance Mag. Time & Date
No recent earthquake activity has been reported nearby.
Minimum magnitude displayed is 2.5.

Coastal Water Temperatures

Place Temperature
No Stations Reporting

Nearby Weather Stations